Time;durP1;ratioP1;P1;durP2;ratioP2;P2;SDS_P1;SDS_P2;PMS_P1;PMS_P2;Temp;Humidity;BMP_temperature;BMP_pressure;BME280_temperature;BME280_humidity;BME280_pressure;Samples;Min_cycle;Max_cycle;Signal;HPM_P1;HPM_P2
2022/07/17 00:00:47;;;;;;;7.03;4.72;;;;;;;17.47;83.36;99511.94;5104556;28;20035;-65
2022/07/17 00:03:15;;;;;;;11.23;5.13;;;;;;;17.46;83.92;99519.88;5104652;28;20020;-65
2022/07/17 00:05:42;;;;;;;6.57;4.78;;;;;;;17.50;83.58;99510.94;5104344;28;20363;-65
2022/07/17 00:08:09;;;;;;;8.63;4.35;;;;;;;17.48;83.52;99515.41;5104258;28;20093;-65
2022/07/17 00:10:37;;;;;;;8.10;4.72;;;;;;;17.40;84.40;99505.34;5104392;28;20377;-65
2022/07/17 00:13:03;;;;;;;7.65;4.55;;;;;;;17.39;83.90;99520.22;5103203;28;20036;-65
2022/07/17 00:15:29;;;;;;;6.40;4.80;;;;;;;17.33;83.98;99517.06;5103810;28;20313;-65
2022/07/17 00:17:55;;;;;;;5.47;4.53;;;;;;;17.31;84.32;99511.06;5104177;28;20097;-65
2022/07/17 00:20:20;;;;;;;6.82;5.05;;;;;;;17.31;84.05;99517.13;5104117;28;20032;-65
2022/07/17 00:22:46;;;;;;;9.75;5.00;;;;;;;17.33;83.27;99519.66;5104074;28;20182;-65
2022/07/17 00:25:13;;;;;;;8.85;4.38;;;;;;;17.34;83.30;99521.38;5104052;28;20097;-65
2022/07/17 00:27:39;;;;;;;9.40;4.78;;;;;;;17.25;84.03;99522.69;5101599;28;20062;-66
2022/07/17 00:30:05;;;;;;;6.90;4.38;;;;;;;17.31;83.79;99517.13;5107099;28;20247;-66
2022/07/17 00:32:31;;;;;;;7.88;4.95;;;;;;;17.30;84.08;99525.94;5119816;28;20049;-66
2022/07/17 00:34:57;;;;;;;9.35;4.90;;;;;;;17.32;83.64;99512.75;5104153;28;20035;-66
2022/07/17 00:37:22;;;;;;;6.30;4.80;;;;;;;17.35;83.89;99513.44;5103748;28;20028;-66
2022/07/17 00:39:48;;;;;;;7.00;4.90;;;;;;;17.38;84.40;99508.03;5103789;28;20027;-66
2022/07/17 00:42:15;;;;;;;7.78;4.22;;;;;;;17.40;83.98;99514.06;5103565;28;20414;-66
2022/07/17 00:44:42;;;;;;;7.47;4.75;;;;;;;17.43;84.18;99510.44;5103813;28;20039;-66
2022/07/17 00:47:17;;;;;;;8.70;4.30;;;;;;;17.18;83.53;99466.38;5103610;28;20035;-66
2022/07/17 00:49:43;;;;;;;7.47;4.35;;;;;;;17.43;83.79;99511.28;5103736;28;20024;-66
2022/07/17 00:52:10;;;;;;;8.45;5.10;;;;;;;17.47;83.44;99505.88;5103605;28;20233;-65
2022/07/17 00:54:37;;;;;;;8.18;4.78;;;;;;;17.42;83.20;99506.94;5102508;28;20309;-66
2022/07/17 00:57:07;;;;;;;9.90;5.47;;;;;;;17.35;83.52;99518.66;5103653;28;20028;-66
2022/07/17 00:59:34;;;;;;;9.15;4.63;;;;;;;17.38;83.11;99513.28;5103541;28;20043;-66
2022/07/17 01:02:06;;;;;;;8.18;5.03;;;;;;;17.36;83.44;99509.91;5103366;28;20024;-66
2022/07/17 01:04:36;;;;;;;7.07;4.80;;;;;;;17.40;83.60;99514.06;5103359;28;20016;-66
2022/07/17 01:07:04;;;;;;;7.72;4.78;;;;;;;17.14;83.29;99467.44;5103455;28;20087;-66
2022/07/17 01:09:31;;;;;;;6.88;4.63;;;;;;;17.37;83.76;99503.75;5103108;28;20032;-66
2022/07/17 01:11:57;;;;;;;8.43;4.88;;;;;;;17.45;83.94;99512.97;5103169;28;20327;-66
2022/07/17 01:14:24;;;;;;;8.60;4.80;;;;;;;17.45;83.45;99507.72;5103407;28;20043;-66
2022/07/17 01:16:50;;;;;;;11.15;5.07;;;;;;;17.42;84.09;99503.50;5102265;28;20020;-66
2022/07/17 01:19:16;;;;;;;8.75;5.15;;;;;;;17.42;84.02;99508.72;5102974;28;20220;-66
2022/07/17 01:21:44;;;;;;;8.10;4.88;;;;;;;17.50;84.25;99511.78;5103008;28;20083;-66
2022/07/17 01:24:10;;;;;;;7.13;4.90;;;;;;;17.50;84.41;99510.94;5102912;28;20328;-66
2022/07/17 01:26:35;;;;;;;7.32;5.05;;;;;;;17.46;83.77;99514.63;5102507;28;20039;-66
2022/07/17 01:29:01;;;;;;;7.70;4.72;;;;;;;17.41;84.11;99510.50;5102605;28;20034;-67
2022/07/17 01:31:27;;;;;;;5.45;4.00;;;;;;;17.43;84.32;99518.28;5117146;28;20027;-66
2022/07/17 01:33:52;;;;;;;7.47;4.53;;;;;;;17.43;83.90;99520.91;5107883;28;20065;-66
2022/07/17 01:36:23;;;;;;;9.40;5.32;;;;;;;17.44;84.60;99543.53;5103029;28;20038;-66
2022/07/17 01:38:49;;;;;;;9.88;5.25;;;;;;;17.46;83.96;99519.88;5102674;28;20039;-66
2022/07/17 01:41:14;;;;;;;9.52;5.13;;;;;;;17.40;84.71;99528.91;5102886;28;20070;-66
2022/07/17 01:43:40;;;;;;;5.78;4.25;;;;;;;17.41;85.00;99527.97;5102707;28;20015;-66
2022/07/17 01:46:05;;;;;;;7.72;4.70;;;;;;;17.41;84.55;99530.59;5102304;28;20330;-66
2022/07/17 01:48:31;;;;;;;9.77;4.93;;;;;;;17.17;84.52;99498.69;5102546;28;20024;-66
2022/07/17 01:50:57;;;;;;;7.50;4.30;;;;;;;17.42;84.59;99529.69;5102493;28;20027;-66
2022/07/17 01:53:22;;;;;;;8.48;4.63;;;;;;;17.39;84.56;99537.69;5102567;28;20034;-66
2022/07/17 01:55:48;;;;;;;7.63;4.38;;;;;;;17.41;84.69;99523.59;5102652;28;20073;-66
2022/07/17 01:58:14;;;;;;;7.63;4.78;;;;;;;17.43;84.16;99529.59;5100966;28;20078;-66
2022/07/17 02:00:40;;;;;;;6.07;4.15;;;;;;;17.45;83.85;99523.44;5100189;28;20092;-66
2022/07/17 02:03:06;;;;;;;8.85;5.00;;;;;;;17.51;83.88;99525.72;5102378;28;20027;-66
2022/07/17 02:05:31;;;;;;;8.93;4.53;;;;;;;17.48;84.63;99528.50;5102525;28;20089;-66
2022/07/17 02:07:57;;;;;;;8.20;4.78;;;;;;;17.50;84.14;99526.63;5102585;28;20027;-66
2022/07/17 02:10:23;;;;;;;10.13;4.57;;;;;;;17.50;84.30;99527.50;5102366;28;20039;-66
2022/07/17 02:12:48;;;;;;;9.93;4.72;;;;;;;17.51;83.81;99529.19;5102293;28;20351;-66
2022/07/17 02:15:34;;;;;;;6.30;4.25;;;;;;;17.57;83.19;99528.00;5101577;28;20082;-66
2022/07/17 02:17:59;;;;;;;4.80;4.28;;;;;;;17.58;83.92;99534.94;5102346;28;20028;-66
2022/07/17 02:20:25;;;;;;;7.03;4.40;;;;;;;17.56;84.22;99523.72;5102163;28;20027;-66
2022/07/17 02:22:51;;;;;;;7.60;4.70;;;;;;;17.56;84.35;99531.56;5102437;28;20032;-65
2022/07/17 02:25:17;;;;;;;7.32;4.70;;;;;;;17.49;83.52;99510.09;5102408;28;20028;-66
2022/07/17 02:27:43;;;;;;;6.35;4.03;;;;;;;17.60;84.31;99531.31;5095749;28;20036;-66
2022/07/17 02:30:12;;;;;;;7.75;4.10;;;;;;;17.67;83.90;99531.84;5105524;28;20019;-66
2022/07/17 02:32:38;;;;;;;5.65;4.88;;;;;;;17.65;83.37;99527.63;5118112;28;20142;-66
2022/07/17 02:35:06;;;;;;;7.00;5.63;;;;;;;17.38;84.06;99484.47;5102499;28;20066;-66
2022/07/17 02:37:31;;;;;;;7.63;4.65;;;;;;;17.64;84.32;99523.31;5102144;28;20016;-66
2022/07/17 02:39:58;;;;;;;6.38;4.60;;;;;;;17.61;84.32;99524.31;5104979;28;20063;-66
2022/07/17 02:42:26;;;;;;;10.60;5.13;;;;;;;17.61;84.77;99529.53;5106341;28;20032;-65
2022/07/17 02:44:53;;;;;;;7.45;5.53;;;;;;;17.62;84.96;99530.41;5106066;28;20024;-65
2022/07/17 02:47:27;;;;;;;8.60;5.57;;;;;;;17.33;84.87;99483.03;5105617;28;20106;-66
2022/07/17 02:49:53;;;;;;;7.93;5.55;;;;;;;17.65;83.97;99532.84;5106138;28;20430;-66
2022/07/17 02:52:19;;;;;;;8.00;5.38;;;;;;;17.63;83.58;99532.06;5104603;28;20383;-66
2022/07/17 02:54:45;;;;;;;7.32;5.30;;;;;;;17.70;83.45;99529.06;5105839;28;20085;-65
2022/07/17 02:57:11;;;;;;;9.52;5.40;;;;;;;17.75;83.03;99527.03;5106055;28;20354;-66
2022/07/17 02:59:37;;;;;;;9.82;5.63;;;;;;;17.77;82.85;99530.44;5105539;28;20063;-65
2022/07/17 03:02:02;;;;;;;8.80;5.88;;;;;;;17.78;82.55;99533.88;5105807;28;20126;-66
2022/07/17 03:04:28;;;;;;;12.25;6.32;;;;;;;17.81;82.69;99531.09;5105587;28;20145;-66
2022/07/17 03:06:54;;;;;;;10.30;5.82;;;;;;;17.84;82.18;99525.72;5105731;28;20141;-65
2022/07/17 03:09:19;;;;;;;8.52;5.47;;;;;;;17.87;82.75;99525.53;5087571;28;20028;-66
2022/07/17 03:11:45;;;;;;;7.88;5.38;;;;;;;17.89;82.82;99530.69;5105433;28;20080;-65
2022/07/17 03:14:10;;;;;;;10.15;5.25;;;;;;;17.91;83.58;99529.72;5105471;28;20084;-66
2022/07/17 03:16:36;;;;;;;9.07;4.82;;;;;;;17.92;83.73;99528.78;5105494;28;20352;-66
2022/07/17 03:19:02;;;;;;;9.02;5.00;;;;;;;17.91;83.10;99527.09;5104430;28;20333;-67
2022/07/17 03:21:28;;;;;;;9.23;5.88;;;;;;;17.95;82.65;99530.38;5105245;28;20032;-66
2022/07/17 03:23:53;;;;;;;10.05;6.25;;;;;;;17.99;82.88;99524.03;5105161;28;20047;-66
2022/07/17 03:26:19;;;;;;;10.93;5.90;;;;;;;17.98;82.43;99526.75;5105357;28;20020;-65
2022/07/17 03:28:44;;;;;;;10.20;5.97;;;;;;;17.93;80.22;99525.22;5105102;28;20149;-66
2022/07/17 03:31:10;;;;;;;11.55;6.50;;;;;;;17.96;80.35;99525.97;5116285;28;20055;-65
2022/07/17 03:33:36;;;;;;;10.25;5.93;;;;;;;18.05;80.30;99528.94;5113173;28;20136;-66
2022/07/17 03:36:01;;;;;;;8.45;5.57;;;;;;;18.11;79.47;99525.13;5105020;28;20027;-66
2022/07/17 03:38:27;;;;;;;10.20;6.30;;;;;;;18.17;79.72;99530.06;5104862;28;20020;-66
2022/07/17 03:40:53;;;;;;;9.65;5.65;;;;;;;17.94;79.13;99494.63;5104924;28;20032;-66
2022/07/17 03:43:18;;;;;;;10.35;5.88;;;;;;;18.25;79.18;99529.63;5104687;28;20057;-66
2022/07/17 03:45:44;;;;;;;10.55;6.20;;;;;;;18.28;78.84;99530.31;5104648;28;20039;-65
2022/07/17 03:48:09;;;;;;;9.63;5.82;;;;;;;18.31;79.79;99526.66;5104519;28;20026;-65
2022/07/17 03:50:35;;;;;;;8.10;6.53;;;;;;;18.36;80.09;99532.50;5103710;28;20320;-65
2022/07/17 03:53:01;;;;;;;8.68;5.45;;;;;;;18.41;80.13;99540.09;5104838;28;20028;-64
2022/07/17 03:55:26;;;;;;;9.32;5.53;;;;;;;18.35;77.61;99536.03;5104615;28;20031;-65
2022/07/17 03:57:52;;;;;;;10.27;5.45;;;;;;;18.46;77.77;99538.06;5104531;28;20198;-65
2022/07/17 04:00:18;;;;;;;10.30;6.07;;;;;;;18.54;78.65;99543.72;5104486;28;20054;-65
2022/07/17 04:02:44;;;;;;;6.55;5.18;;;;;;;18.61;78.16;99537.19;5104255;28;20024;-65
2022/07/17 04:05:11;;;;;;;8.63;5.50;;;;;;;18.67;77.21;99535.13;5104647;28;20085;-65
2022/07/17 04:07:41;;;;;;;10.13;5.57;;;;;;;18.73;77.06;99533.00;5104359;28;20054;-65
2022/07/17 04:10:08;;;;;;;9.57;5.32;;;;;;;18.79;77.13;99537.06;5103117;28;20020;-65
2022/07/17 04:12:34;;;;;;;13.20;6.22;;;;;;;18.85;77.09;99539.31;5104123;28;20043;-66
2022/07/17 04:15:00;;;;;;;15.10;6.90;;;;;;;18.95;76.99;99537.03;5104443;28;20031;-66
2022/07/17 04:17:26;;;;;;;16.02;5.60;;;;;;;18.96;76.62;99528.25;5104210;28;20117;-66
2022/07/17 04:19:52;;;;;;;11.23;6.20;;;;;;;19.07;76.47;99531.06;5104241;28;20027;-66
2022/07/17 04:22:18;;;;;;;15.52;6.80;;;;;;;19.06;74.30;99528.53;5103886;28;20024;-66
2022/07/17 04:24:44;;;;;;;8.48;5.25;;;;;;;19.05;73.00;99522.44;5104152;28;20036;-66
2022/07/17 04:27:10;;;;;;;13.63;5.47;;;;;;;19.12;72.68;99541.28;5100179;28;20059;-65
2022/07/17 04:29:36;;;;;;;10.35;5.65;;;;;;;19.19;72.79;99545.25;5103887;28;20104;-65
2022/07/17 04:32:04;;;;;;;11.30;6.35;;;;;;;19.20;72.54;99543.47;5123255;28;20050;-66
2022/07/17 04:34:30;;;;;;;8.80;4.53;;;;;;;19.17;71.13;99539.25;5105117;28;20023;-66
2022/07/17 04:36:55;;;;;;;11.07;4.70;;;;;;;19.22;71.37;99536.34;5102660;28;20100;-66
2022/07/17 04:39:23;;;;;;;8.32;4.35;;;;;;;19.26;71.75;99535.22;5103644;28;20039;-65
2022/07/17 04:41:49;;;;;;;5.32;4.28;;;;;;;19.33;71.47;99543.59;5103441;28;20073;-65
2022/07/17 04:44:15;;;;;;;6.75;4.20;;;;;;;19.38;71.42;99542.38;5103759;28;20077;-66
2022/07/17 04:46:41;;;;;;;7.50;4.05;;;;;;;19.45;71.17;99533.19;5103393;28;20032;-65
2022/07/17 04:49:06;;;;;;;6.50;3.78;;;;;;;19.48;70.45;99533.00;5103654;28;20105;-65
2022/07/17 04:51:32;;;;;;;7.47;4.97;;;;;;;19.47;69.16;99528.66;5103465;28;20224;-65
2022/07/17 04:53:57;;;;;;;7.43;5.25;;;;;;;19.34;69.70;99529.50;5103345;28;20027;-64
2022/07/17 04:56:23;;;;;;;8.55;5.10;;;;;;;19.50;70.19;99535.53;5102312;28;20291;-64
2022/07/17 04:58:49;;;;;;;7.55;4.55;;;;;;;19.56;69.64;99534.31;5103437;28;20055;-65
2022/07/17 05:01:14;;;;;;;8.52;5.20;;;;;;;19.56;70.47;99536.94;5103195;28;20312;-65
2022/07/17 05:03:40;;;;;;;10.10;5.13;;;;;;;19.59;70.48;99532.31;5103007;28;20069;-65
2022/07/17 05:06:06;;;;;;;8.75;5.80;;;;;;;19.41;69.80;99530.81;5103223;28;20024;-65
2022/07/17 05:08:33;;;;;;;7.32;4.70;;;;;;;19.59;69.23;99539.38;5103252;28;20035;-64
2022/07/17 05:10:58;;;;;;;5.65;4.40;;;;;;;19.61;68.74;99535.72;5103289;28;20020;-66
2022/07/17 05:13:25;;;;;;;6.30;4.05;;;;;;;19.54;67.31;99521.28;5102867;28;20051;-65
2022/07/17 05:15:51;;;;;;;8.18;3.67;;;;;;;19.74;67.03;99538.44;5103168;28;20032;-65
2022/07/17 05:18:16;;;;;;;5.57;3.40;;;;;;;19.73;64.13;99536.72;5102893;28;20071;-65
2022/07/17 05:20:42;;;;;;;4.55;2.88;;;;;;;19.85;64.37;99536.94;5102989;28;20312;-66
2022/07/17 05:23:08;;;;;;;4.68;2.97;;;;;;;19.97;64.32;99538.81;5103092;28;20081;-65
2022/07/17 05:25:33;;;;;;;4.68;3.35;;;;;;;20.07;64.75;99539.09;5102791;28;20091;-65
2022/07/17 05:28:00;;;;;;;6.50;2.78;;;;;;;20.04;63.56;99544.50;5102727;28;20078;-65
2022/07/17 05:30:25;;;;;;;3.00;2.55;;;;;;;20.09;62.99;99550.34;5108579;28;20124;-65
2022/07/17 05:32:51;;;;;;;4.45;2.50;;;;;;;20.07;63.30;99547.81;5118333;28;20027;-65
2022/07/17 05:35:16;;;;;;;5.20;2.40;;;;;;;20.10;62.57;99554.66;5101151;28;20324;-65
2022/07/17 05:37:42;;;;;;;3.38;2.15;;;;;;;20.15;63.24;99542.91;5082538;28;20029;-65
2022/07/17 05:40:08;;;;;;;4.90;2.38;;;;;;;20.17;62.24;99543.63;5096688;28;20366;-65
2022/07/17 05:42:34;;;;;;;4.78;1.95;;;;;;;20.21;60.71;99544.31;5102241;28;20087;-65
2022/07/17 05:44:59;;;;;;;3.55;1.85;;;;;;;20.20;61.43;99539.16;5102570;28;20339;-66
2022/07/17 05:47:25;;;;;;;3.40;1.95;;;;;;;20.16;60.69;99533.22;5102375;28;20098;-65
2022/07/17 05:49:51;;;;;;;5.13;1.83;;;;;;;20.26;62.24;99542.19;5102750;28;20032;-66
2022/07/17 05:52:17;;;;;;;2.15;1.42;;;;;;;20.23;62.44;99544.19;5102426;28;20032;-65
2022/07/17 05:54:42;;;;;;;3.22;2.15;;;;;;;20.25;61.88;99537.91;5102475;28;20035;-66
2022/07/17 05:57:08;;;;;;;5.78;1.98;;;;;;;20.31;60.41;99537.50;5102606;28;20256;-65
2022/07/17 05:59:34;;;;;;;2.83;1.63;;;;;;;20.33;59.67;99540.88;5091814;28;20033;-65
2022/07/17 06:02:00;;;;;;;3.15;2.22;;;;;;;20.22;59.62;99532.81;5102441;28;20064;-65
2022/07/17 06:04:26;;;;;;;4.13;1.70;;;;;;;20.49;58.42;99535.47;5102180;28;20028;-66
2022/07/17 06:06:52;;;;;;;3.40;1.60;;;;;;;20.63;59.92;99537.19;5095836;28;20024;-65
2022/07/17 06:09:18;;;;;;;2.22;1.67;;;;;;;20.78;59.13;99534.50;5102407;28;20059;-65
2022/07/17 06:11:44;;;;;;;2.55;1.52;;;;;;;20.80;60.33;99533.47;5102102;28;20024;-65
2022/07/17 06:14:09;;;;;;;3.45;1.90;;;;;;;20.88;59.80;99534.75;5104113;28;20446;-65
2022/07/17 06:16:35;;;;;;;1.75;1.40;;;;;;;20.86;58.73;99530.44;5105236;28;20043;-65
2022/07/17 06:19:00;;;;;;;1.40;1.30;;;;;;;20.90;57.04;99528.44;5105461;28;20024;-65
2022/07/17 06:21:27;;;;;;;3.88;1.48;;;;;;;20.97;57.42;99527.09;5106537;28;20035;-65
2022/07/17 06:23:53;;;;;;;2.40;1.20;;;;;;;21.03;58.32;99533.72;5104353;28;20051;-65
2022/07/17 06:26:18;;;;;;;3.53;1.63;;;;;;;21.06;58.36;99530.88;5086420;28;20024;-65
2022/07/17 06:28:45;;;;;;;5.03;1.42;;;;;;;20.95;57.62;99531.63;5106125;28;20101;-65
2022/07/17 06:31:11;;;;;;;3.60;1.73;;;;;;;20.89;57.93;99528.53;5096920;28;20040;-66
2022/07/17 06:33:37;;;;;;;3.70;1.50;;;;;;;21.10;58.56;99528.91;5104002;28;20039;-65
2022/07/17 06:36:03;;;;;;;1.63;1.50;;;;;;;21.24;58.73;99536.69;5106188;28;20320;-65
2022/07/17 06:38:28;;;;;;;3.17;1.55;;;;;;;21.30;57.75;99531.00;5106051;28;20020;-64
2022/07/17 06:40:54;;;;;;;1.63;1.20;;;;;;;21.14;57.97;99527.75;5104916;28;20031;-64
2022/07/17 06:43:20;;;;;;;3.83;1.60;;;;;;;21.21;57.75;99524.56;5105809;28;20027;-64
2022/07/17 06:45:45;;;;;;;3.58;1.33;;;;;;;21.35;57.33;99522.81;5105908;28;20047;-64
2022/07/17 06:48:11;;;;;;;3.53;1.50;;;;;;;21.41;56.09;99505.72;5105616;28;20020;-64
2022/07/17 06:50:37;;;;;;;3.13;1.50;;;;;;;21.31;54.18;99500.25;5105830;28;20023;-65
2022/07/17 06:53:02;;;;;;;1.25;1.10;;;;;;;21.42;54.36;99513.53;5105750;28;20047;-65
2022/07/17 06:55:28;;;;;;;3.85;1.50;;;;;;;21.43;54.39;99509.91;5105816;28;20251;-65
2022/07/17 06:57:53;;;;;;;2.63;1.27;;;;;;;21.62;55.19;99506.03;5104670;28;20091;-65
2022/07/17 07:00:19;;;;;;;2.63;1.10;;;;;;;21.50;55.00;99508.53;5105705;28;20208;-65
2022/07/17 07:02:45;;;;;;;1.92;1.20;;;;;;;21.38;52.02;99506.78;5105344;28;20050;-66
2022/07/17 07:05:10;;;;;;;1.55;1.40;;;;;;;21.56;53.95;99504.66;5104640;28;20036;-65
2022/07/17 07:07:36;;;;;;;1.52;1.30;;;;;;;21.68;56.43;99514.34;5105524;28;20039;-65
2022/07/17 07:10:02;;;;;;;1.58;1.48;;;;;;;21.78;54.92;99514.53;5105717;28;20024;-64
2022/07/17 07:12:29;;;;;;;1.55;1.45;;;;;;;21.82;54.10;99512.50;5105201;28;20050;-65
2022/07/17 07:14:54;;;;;;;3.33;2.08;;;;;;;21.55;54.41;99472.19;5105632;28;20242;-65
2022/07/17 07:17:20;;;;;;;3.75;1.60;;;;;;;21.77;53.15;99506.75;5105414;28;20036;-65
2022/07/17 07:19:46;;;;;;;1.85;1.48;;;;;;;21.84;54.00;99505.34;5105229;28;20028;-65
2022/07/17 07:22:11;;;;;;;2.70;1.77;;;;;;;21.94;53.56;99509.00;5105114;28;20024;-64
2022/07/17 07:24:37;;;;;;;1.40;1.10;;;;;;;21.91;52.38;99514.50;5104514;28;20027;-65
2022/07/17 07:27:03;;;;;;;2.03;1.20;;;;;;;21.80;54.29;99509.16;5104456;28;20043;-65
2022/07/17 07:29:29;;;;;;;3.20;1.40;;;;;;;21.80;53.72;99512.63;5104152;28;20031;-65
2022/07/17 07:31:54;;;;;;;1.13;1.00;;;;;;;21.81;55.85;99514.31;5111986;28;20023;-64
2022/07/17 07:34:20;;;;;;;2.25;1.38;;;;;;;21.91;54.88;99508.41;5103726;28;20033;-64
2022/07/17 07:36:45;;;;;;;3.17;1.42;;;;;;;21.93;53.46;99517.03;5104810;28;20035;-65
2022/07/17 07:39:11;;;;;;;3.97;1.38;;;;;;;22.12;55.43;99511.28;5104926;28;20066;-65
2022/07/17 07:41:37;;;;;;;1.30;1.20;;;;;;;22.25;54.08;99512.06;5104409;28;20032;-65
2022/07/17 07:44:02;;;;;;;3.63;1.33;;;;;;;22.15;51.04;99495.25;5104301;28;20044;-65
2022/07/17 07:46:28;;;;;;;1.52;1.42;;;;;;;22.12;51.16;99501.59;5104038;28;20020;-65
2022/07/17 07:48:54;;;;;;;4.78;1.40;;;;;;;22.26;51.85;99497.09;5104608;28;20028;-65
2022/07/17 07:51:19;;;;;;;3.65;1.40;;;;;;;22.29;53.28;99495.06;5104937;28;20028;-65
2022/07/17 07:53:45;;;;;;;3.25;1.60;;;;;;;22.31;50.83;99495.78;5104453;28;20059;-65
2022/07/17 07:56:12;;;;;;;8.48;1.80;;;;;;;22.40;51.42;99507.50;5104525;28;20327;-65
2022/07/17 07:58:37;;;;;;;4.63;1.50;;;;;;;22.30;52.31;99498.53;5104333;28;20036;-65
2022/07/17 08:01:03;;;;;;;3.72;1.70;;;;;;;22.34;51.39;99506.16;5104750;28;20336;-65
2022/07/17 08:03:29;;;;;;;4.68;2.20;;;;;;;22.23;52.52;99514.84;5104348;28;20036;-65
2022/07/17 08:05:54;;;;;;;2.78;1.60;;;;;;;22.29;51.91;99517.97;5104551;28;20024;-65
2022/07/17 08:08:20;;;;;;;4.43;1.60;;;;;;;22.43;51.71;99515.19;5104298;28;20081;-65
2022/07/17 08:10:46;;;;;;;4.90;1.80;;;;;;;22.21;51.66;99506.16;5104246;28;20325;-64
2022/07/17 08:13:11;;;;;;;2.85;1.50;;;;;;;22.11;50.14;99514.88;5104363;28;20197;-65
2022/07/17 08:15:37;;;;;;;4.47;1.80;;;;;;;22.22;52.06;99515.78;5104555;28;20032;-65
2022/07/17 08:18:03;;;;;;;3.83;1.30;;;;;;;22.19;52.09;99529.19;5086134;28;20365;-65
2022/07/17 08:20:28;;;;;;;2.80;1.30;;;;;;;22.10;50.48;99523.75;5104156;28;20020;-65
2022/07/17 08:22:54;;;;;;;2.58;1.17;;;;;;;22.09;50.90;99520.28;5104107;28;20401;-65
2022/07/17 08:25:20;;;;;;;3.88;1.30;;;;;;;21.93;52.07;99519.69;5102831;28;20336;-64
2022/07/17 08:27:46;;;;;;;1.95;1.45;;;;;;;21.87;52.96;99528.88;5102009;28;20044;-65
2022/07/17 08:30:13;;;;;;;2.58;1.40;;;;;;;21.88;52.59;99536.66;5097565;28;20015;-64
2022/07/17 08:32:39;;;;;;;3.08;1.50;;;;;;;21.84;51.37;99524.66;5122609;28;20108;-60
2022/07/17 08:35:06;;;;;;;3.38;1.30;;;;;;;21.92;52.33;99523.25;5104188;28;20031;-60
2022/07/17 08:37:45;;;;;;;4.20;1.50;;;;;;;22.15;51.82;99525.09;5103418;28;20031;-60
2022/07/17 08:40:24;;;;;;;4.30;1.23;;;;;;;22.24;48.49;99516.50;5103776;28;20047;-59
2022/07/17 08:42:51;;;;;;;3.35;1.42;;;;;;;22.30;48.54;99519.66;5103310;28;20024;-59
2022/07/17 08:45:16;;;;;;;2.85;1.55;;;;;;;22.38;49.11;99518.16;5103684;28;20056;-59
2022/07/17 08:47:44;;;;;;;3.45;1.88;;;;;;;22.24;47.25;99473.44;5103527;28;20331;-62
2022/07/17 08:50:12;;;;;;;4.93;1.42;;;;;;;22.66;48.26;99518.78;5103720;28;20051;-63
2022/07/17 08:52:39;;;;;;;6.28;1.50;;;;;;;22.43;47.96;99478.22;5103515;28;20343;-62
2022/07/17 08:55:13;;;;;;;2.42;1.45;;;;;;;22.24;45.95;99499.84;5102429;28;20296;-62
2022/07/17 08:57:41;;;;;;;2.58;1.40;;;;;;;22.48;46.20;99517.50;5096124;28;20046;-62
2022/07/17 09:00:10;;;;;;;4.82;1.42;;;;;;;22.65;48.49;99524.16;5095783;28;20359;-63
2022/07/17 09:02:37;;;;;;;4.68;2.00;;;;;;;22.65;46.34;99524.16;5103275;28;20108;-62
2022/07/17 09:05:03;;;;;;;8.15;5.95;;;;;;;22.81;48.36;99526.50;5102599;28;20114;-62
2022/07/17 09:07:30;;;;;;;7.97;7.18;;;;;;;22.80;48.52;99523.00;5103328;28;20034;-62
2022/07/17 09:09:56;;;;;;;9.05;5.53;;;;;;;22.76;49.23;99526.84;5103097;28;20027;-63
2022/07/17 09:12:29;;;;;;;3.13;1.73;;;;;;;22.52;47.75;99493.41;5103298;28;20019;-62
2022/07/17 09:14:56;;;;;;;4.38;3.92;;;;;;;22.78;48.84;99524.94;5098958;28;20069;-63
2022/07/17 09:17:24;;;;;;;3.20;1.58;;;;;;;22.82;49.84;99525.56;5103059;28;20055;-63
2022/07/17 09:19:50;;;;;;;5.88;3.10;;;;;;;22.80;50.51;99528.28;5102916;28;20038;-63
2022/07/17 09:22:24;;;;;;;4.18;2.38;;;;;;;22.56;48.68;99492.22;5102712;28;20032;-63
2022/07/17 09:24:55;;;;;;;2.90;2.10;;;;;;;22.34;49.55;99494.75;5103070;28;20119;-63
2022/07/17 09:27:23;;;;;;;5.22;2.03;;;;;;;22.44;49.71;99545.06;5103111;28;20044;-63
2022/07/17 09:30:11;;;;;;;2.13;1.60;;;;;;;22.40;50.89;99547.06;5103668;28;20035;-62
2022/07/17 09:32:41;;;;;;;2.30;1.73;;;;;;;22.07;51.39;99498.41;5122501;28;20030;-62
2022/07/17 09:35:11;;;;;;;8.40;1.92;;;;;;;22.13;49.99;99534.91;5103269;28;20020;-63
2022/07/17 09:37:38;;;;;;;4.90;1.60;;;;;;;21.99;48.51;99527.13;5101573;28;20095;-63
2022/07/17 09:41:09;;;;;;;2.45;1.50;;;;;;;21.96;49.39;99551.09;5102734;28;20028;-63
2022/07/17 09:42:57;;;;;;;5.93;1.67;;;;;;;21.87;52.25;99549.97;5102719;28;20028;-62
2022/07/17 09:45:23;;;;;;;5.82;2.70;;;;;;;21.57;54.89;99542.41;5102634;28;20020;-62
2022/07/17 09:47:49;;;;;;;7.07;3.47;;;;;;;21.43;57.66;99552.06;5102404;28;20035;-63
2022/07/17 09:50:16;;;;;;;4.68;3.03;;;;;;;21.37;57.65;99552.50;5102365;28;20328;-63
2022/07/17 09:52:43;;;;;;;5.70;3.47;;;;;;;21.24;58.85;99555.13;5102607;28;20024;-62
2022/07/17 09:55:10;;;;;;;6.00;2.92;;;;;;;21.17;59.04;99532.78;5102679;28;20028;-62
2022/07/17 09:57:40;;;;;;;7.57;2.22;;;;;;;20.85;60.56;99493.69;5102445;28;20349;-62
2022/07/17 10:00:15;;;;;;;5.95;2.72;;;;;;;20.87;60.68;99486.53;5086786;28;20024;-62
2022/07/17 10:02:44;;;;;;;4.97;2.38;;;;;;;21.15;60.99;99551.34;5083412;28;20032;-63
2022/07/17 10:05:15;;;;;;;3.92;2.28;;;;;;;20.89;59.28;99547.81;5102498;28;20343;-62
2022/07/17 10:07:45;;;;;;;3.42;1.50;;;;;;;20.76;59.70;99552.22;5102462;28;20035;-61
2022/07/17 10:10:13;;;;;;;2.83;1.80;;;;;;;20.63;59.24;99516.13;5102236;28;20043;-61
2022/07/17 10:12:42;;;;;;;3.58;1.83;;;;;;;20.90;60.15;99553.94;5102063;28;20039;-61
2022/07/17 10:15:08;;;;;;;3.22;1.45;;;;;;;20.99;58.78;99554.16;5102151;28;20024;-61
2022/07/17 10:17:34;;;;;;;5.63;5.13;;;;;;;21.02;58.36;99553.97;5100980;28;20028;-58
2022/07/17 10:20:00;;;;;;;2.15;1.55;;;;;;;21.09;58.22;99564.06;5102424;28;20062;-58
2022/07/17 10:22:26;;;;;;;2.05;1.70;;;;;;;21.09;58.83;99564.06;5101302;28;20043;-58
2022/07/17 10:24:56;;;;;;;3.92;1.65;;;;;;;21.05;59.60;99571.34;5102185;28;20024;-59
2022/07/17 10:27:28;;;;;;;5.45;1.60;;;;;;;21.08;59.45;99557.97;5100158;28;20147;-59
2022/07/17 10:30:20;;;;;;;;;;;;;;;21.20;58.91;99554.47;5096719;28;20036;-57
2022/07/17 10:32:52;;;;;;;4.07;1.73;;;;;;;21.26;59.47;99545.31;5117643;28;19969;-59
2022/07/17 10:35:18;;;;;;;4.75;1.80;;;;;;;21.37;59.17;99547.22;5102290;28;20081;-61
2022/07/17 10:37:44;;;;;;;3.65;1.60;;;;;;;21.47;58.18;99556.19;5102144;28;20031;-58
2022/07/17 10:40:17;;;;;;;2.75;1.73;;;;;;;21.50;56.30;99558.59;5101982;28;20031;-57
2022/07/17 10:43:02;;;;;;;2.78;2.08;;;;;;;21.59;57.22;99556.31;5102068;28;20024;-59
2022/07/17 10:45:44;;;;;;;3.50;1.70;;;;;;;21.53;55.03;99504.88;5101687;28;20116;-59
2022/07/17 10:48:21;;;;;;;2.65;1.85;;;;;;;21.76;56.07;99500.63;5086708;28;20024;-59
2022/07/17 10:50:48;;;;;;;4.32;1.98;;;;;;;22.03;56.05;99550.56;5100739;28;20269;-60
2022/07/17 10:53:26;;;;;;;4.15;1.75;;;;;;;22.19;55.24;99545.03;5101456;28;20335;-59
2022/07/17 10:55:53;;;;;;;1.52;1.42;;;;;;;22.31;50.05;99548.56;5099472;28;20328;-59
2022/07/17 10:58:25;;;;;;;3.95;1.25;;;;;;;22.22;49.29;99515.78;5101222;28;20051;-60
2022/07/17 11:01:02;;;;;;;2.15;1.50;;;;;;;22.54;50.05;99544.25;5103550;28;20335;-59
2022/07/17 11:03:29;;;;;;;1.33;1.17;;;;;;;22.62;51.36;99534.94;5104858;28;20247;-60
2022/07/17 11:05:54;;;;;;;2.15;1.50;;;;;;;22.65;49.79;99526.81;5104980;28;20031;-59
2022/07/17 11:08:20;;;;;;;2.15;1.15;;;;;;;22.55;47.53;99524.84;5105073;28;20028;-59
2022/07/17 11:10:47;;;;;;;1.80;1.35;;;;;;;22.60;49.09;99510.47;5104138;28;20027;-58
2022/07/17 11:13:16;;;;;;;3.58;1.40;;;;;;;22.67;47.26;99520.44;5105115;28;20099;-59
2022/07/17 11:15:44;;;;;;;2.35;1.30;;;;;;;22.64;48.92;99515.38;5105305;28;20028;-59
2022/07/17 11:18:16;;;;;;;1.83;1.17;;;;;;;22.31;48.93;99466.75;5103452;28;20023;-59
2022/07/17 11:20:48;;;;;;;;;;;;;;;22.61;50.18;99506.88;5105702;28;20204;-59
2022/07/17 11:23:13;;;;;;;2.65;1.38;;;;;;;22.64;50.33;99511.91;5105221;28;20029;-59
2022/07/17 11:25:39;;;;;;;2.47;1.27;;;;;;;22.70;48.52;99517.59;5104743;28;20356;-59
2022/07/17 11:28:04;;;;;;;2.60;1.10;;;;;;;22.78;48.52;99522.28;5105367;28;20151;-59
2022/07/17 11:30:30;;;;;;;3.25;1.33;;;;;;;22.71;48.49;99532.47;5105009;28;20024;-59
2022/07/17 11:32:57;;;;;;;1.75;1.10;;;;;;;22.84;48.95;99528.91;5105062;28;20055;-59